Normandy Isle, Florida
Current Conditions -  °F | °C
As of 9:53 AM on Thursday 23 Oct 2014 (Local Time) from KMIA Reporting Station
Overcast Overcast  
Wind Chill: 77°   Ceiling: 4000
Heat Index: 78°   Visibility: 10mi
Dew Point: 73°   Wind: 5mph
Humidity: 88%   Direction: 40°NE
Pressure: 29.94"   Gusts: NA
Location:  25.8619°N, 80.1259°W
Report Text: KMIA 231353Z 04004KT 10SM SCT020CB BKN040 OVC140 25/23 A2994 RMK AO2 RAB1258E10B27E47 SLP139 CB NE MOV W P0000 T02500228
Loading
Personal Weather Stations






























Interactive Weather Map
Tropical Storm Tracking
New forecast layout! Learn more

10-Day Weather Forecast

Advertisements
Track Severe Weather on mobile